sensor_id;sensor_type;location;lat;lon;timestamp;pressure;altitude;pressure_sealevel;temperature;humidity
6853;BME280;3465;42.144;24.722;2023-03-21T00:00:22;145839.47;;;11.69;79.94
6853;BME280;3465;42.144;24.722;2023-03-21T00:02:47;145844.50;;;11.71;80.17
6853;BME280;3465;42.144;24.722;2023-03-21T00:05:13;145842.03;;;11.70;80.52
6853;BME280;3465;42.144;24.722;2023-03-21T00:07:38;145833.25;;;11.67;80.62
6853;BME280;3465;42.144;24.722;2023-03-21T00:10:04;145821.91;;;11.62;81.33
6853;BME280;3465;42.144;24.722;2023-03-21T00:12:30;145823.13;;;11.63;80.86
6853;BME280;3465;42.144;24.722;2023-03-21T00:14:57;145827.00;;;11.64;81.23
6853;BME280;3465;42.144;24.722;2023-03-21T00:17:29;145824.47;;;11.63;81.51
6853;BME280;3465;42.144;24.722;2023-03-21T00:19:57;145808.09;;;11.56;82.02
6853;BME280;3465;42.144;24.722;2023-03-21T00:22:23;145791.81;;;11.50;82.22
6853;BME280;3465;42.144;24.722;2023-03-21T00:24:49;145771.75;;;11.42;82.02
6853;BME280;3465;42.144;24.722;2023-03-21T00:27:16;145786.84;;;11.48;82.41
6853;BME280;3465;42.144;24.722;2023-03-21T00:29:44;145770.53;;;11.41;83.00
6853;BME280;3465;42.144;24.722;2023-03-21T00:32:09;145760.50;;;11.37;83.05
6853;BME280;3465;42.144;24.722;2023-03-21T00:34:34;145751.72;;;11.34;83.33
6853;BME280;3465;42.144;24.722;2023-03-21T00:37:02;145751.72;;;11.34;83.65
6853;BME280;3465;42.144;24.722;2023-03-21T00:39:28;145736.69;;;11.28;83.93
6853;BME280;3465;42.144;24.722;2023-03-21T00:41:53;145735.41;;;11.27;83.71
6853;BME280;3465;42.144;24.722;2023-03-21T00:44:18;145754.25;;;11.35;83.69
6853;BME280;3465;42.144;24.722;2023-03-21T00:46:45;145739.16;;;11.29;84.19
6853;BME280;3465;42.144;24.722;2023-03-21T00:49:10;145709.13;;;11.17;84.86
6853;BME280;3465;42.144;24.722;2023-03-21T00:51:36;145714.16;;;11.19;85.41
6853;BME280;3465;42.144;24.722;2023-03-21T00:54:02;145717.91;;;11.20;85.56
6853;BME280;3465;42.144;24.722;2023-03-21T00:56:31;145689.06;;;11.09;86.38
6853;BME280;3465;42.144;24.722;2023-03-21T00:58:56;145661.53;;;10.98;87.38
6853;BME280;3465;42.144;24.722;2023-03-21T01:01:21;145621.44;;;10.82;87.74
6853;BME280;3465;42.144;24.722;2023-03-21T01:03:47;145631.44;;;10.86;87.93
6853;BME280;3465;42.144;24.722;2023-03-21T01:06:16;145521.25;;;10.42;87.89
6853;BME280;3465;42.144;24.722;2023-03-21T01:08:43;145628.94;;;10.85;89.40
6853;BME280;3465;42.144;24.722;2023-03-21T01:11:16;145625.19;;;10.83;90.39
6853;BME280;3465;42.144;24.722;2023-03-21T01:13:42;145633.97;;;10.87;90.80
6853;BME280;3465;42.144;24.722;2023-03-21T01:16:08;145647.72;;;10.92;90.76
6853;BME280;3465;42.144;24.722;2023-03-21T01:18:35;145607.63;;;10.76;91.13
6853;BME280;3465;42.144;24.722;2023-03-21T01:21:06;145627.69;;;10.84;91.21
6853;BME280;3465;42.144;24.722;2023-03-21T01:23:32;145633.97;;;10.87;90.79
6853;BME280;3465;42.144;24.722;2023-03-21T01:25:57;145641.47;;;10.90;90.40
6853;BME280;3465;42.144;24.722;2023-03-21T01:28:27;145650.25;;;10.93;90.54
6853;BME280;3465;42.144;24.722;2023-03-21T01:30:53;145627.69;;;10.84;90.71
6853;BME280;3465;42.144;24.722;2023-03-21T01:33:19;145623.94;;;10.83;91.10
6853;BME280;3465;42.144;24.722;2023-03-21T01:35:45;145617.69;;;10.80;90.43
6853;BME280;3465;42.144;24.722;2023-03-21T01:38:11;145633.97;;;10.87;90.11
6853;BME280;3465;42.144;24.722;2023-03-21T01:40:37;145625.19;;;10.83;90.42
6853;BME280;3465;42.144;24.722;2023-03-21T01:43:03;145615.16;;;10.79;90.39
6853;BME280;3465;42.144;24.722;2023-03-21T01:48:41;145623.94;;;10.83;90.19
6853;BME280;3465;42.144;24.722;2023-03-21T01:51:10;145627.69;;;10.84;89.49
6853;BME280;3465;42.144;24.722;2023-03-21T01:53:37;145613.94;;;10.79;90.11
6853;BME280;3465;42.144;24.722;2023-03-21T01:56:21;145601.41;;;10.74;91.58
6853;BME280;3465;42.144;24.722;2023-03-21T01:58:48;145598.88;;;10.73;91.86
6853;BME280;3465;42.144;24.722;2023-03-21T02:01:15;145600.13;;;10.73;92.04
6853;BME280;3465;42.144;24.722;2023-03-21T02:03:43;145592.63;;;10.70;92.11
6853;BME280;3465;42.144;24.722;2023-03-21T02:08:48;145605.16;;;10.75;92.41
6853;BME280;3465;42.144;24.722;2023-03-21T02:11:15;145607.63;;;10.76;91.72
6853;BME280;3465;42.144;24.722;2023-03-21T02:13:41;145615.16;;;10.79;91.53
6853;BME280;3465;42.144;24.722;2023-03-21T02:24:55;145580.09;;;10.65;92.54
6853;BME280;3465;42.144;24.722;2023-03-21T02:37:47;145519.97;;;10.41;95.00
6853;BME280;3465;42.144;24.722;2023-03-21T02:40:21;145488.69;;;10.29;95.74
6853;BME280;3465;42.144;24.722;2023-03-21T02:45:19;145474.91;;;10.23;97.84
6853;BME280;3465;42.144;24.722;2023-03-21T02:47:48;145486.22;;;10.28;97.55
6853;BME280;3465;42.144;24.722;2023-03-21T02:50:23;145481.19;;;10.26;98.12
6853;BME280;3465;42.144;24.722;2023-03-21T02:52:53;145483.66;;;10.27;97.93
6853;BME280;3465;42.144;24.722;2023-03-21T02:55:23;145503.69;;;10.35;98.43
6853;BME280;3465;42.144;24.722;2023-03-21T02:57:51;145498.69;;;10.33;98.63
6853;BME280;3465;42.144;24.722;2023-03-21T03:00:21;145503.69;;;10.35;98.57
6853;BME280;3465;42.144;24.722;2023-03-21T03:02:48;145503.69;;;10.35;98.41
6853;BME280;3465;42.144;24.722;2023-03-21T03:05:28;145492.44;;;10.30;98.73
6853;BME280;3465;42.144;24.722;2023-03-21T03:08:26;145452.38;;;10.14;99.91
6853;BME280;3465;42.144;24.722;2023-03-21T03:13:38;145408.53;;;9.96;100.00
6853;BME280;3465;42.144;24.722;2023-03-21T03:19:12;145330.91;;;9.65;100.00
6853;BME280;3465;42.144;24.722;2023-03-21T03:21:48;145324.69;;;9.63;100.00
6853;BME280;3465;42.144;24.722;2023-03-21T03:24:39;145305.94;;;9.55;100.00
6853;BME280;3465;42.144;24.722;2023-03-21T03:27:17;145294.63;;;9.51;100.00
6853;BME280;3465;42.144;24.722;2023-03-21T03:29:46;145279.63;;;9.45;100.00
6853;BME280;3465;42.144;24.722;2023-03-21T03:34:49;145253.38;;;9.34;100.00
6853;BME280;3465;42.144;24.722;2023-03-21T03:37:19;145239.59;;;9.29;100.00
6853;BME280;3465;42.144;24.722;2023-03-21T03:39:54;145235.84;;;9.27;100.00
6853;BME280;3465;42.144;24.722;2023-03-21T03:42:33;145224.59;;;9.23;100.00
6853;BME280;3465;42.144;24.722;2023-03-21T03:45:01;145208.34;;;9.16;100.00
6853;BME280;3465;42.144;24.722;2023-03-21T03:52:50;145177.09;;;9.04;100.00
6853;BME280;3465;42.144;24.722;2023-03-21T03:55:17;145169.59;;;9.01;100.00
6853;BME280;3465;42.144;24.722;2023-03-21T03:57:46;145173.34;;;9.02;100.00
6853;BME280;3465;42.144;24.722;2023-03-21T04:00:13;145212.09;;;9.18;100.00
6853;BME280;3465;42.144;24.722;2023-03-21T04:02:40;145178.31;;;9.04;100.00
6853;BME280;3465;42.144;24.722;2023-03-21T04:05:06;145108.31;;;8.76;100.00
6853;BME280;3465;42.144;24.722;2023-03-21T04:07:31;145132.06;;;8.86;100.00
6853;BME280;3465;42.144;24.722;2023-03-21T04:09:57;145150.78;;;8.93;100.00
6853;BME280;3465;42.144;24.722;2023-03-21T04:12:23;145144.56;;;8.91;100.00
6853;BME280;3465;42.144;24.722;2023-03-21T04:14:49;145132.06;;;8.86;100.00
6853;BME280;3465;42.144;24.722;2023-03-21T04:17:14;145130.78;;;8.85;100.00
6853;BME280;3465;42.144;24.722;2023-03-21T04:19:40;145119.53;;;8.81;100.00
6853;BME280;3465;42.144;24.722;2023-03-21T04:22:05;145124.56;;;8.83;100.00
6853;BME280;3465;42.144;24.722;2023-03-21T04:24:31;145117.06;;;8.80;100.00
6853;BME280;3465;42.144;24.722;2023-03-21T04:26:58;145097.06;;;8.72;100.00
6853;BME280;3465;42.144;24.722;2023-03-21T04:29:24;145103.28;;;8.74;100.00
6853;BME280;3465;42.144;24.722;2023-03-21T04:31:50;145049.56;;;8.52;100.00
6853;BME280;3465;42.144;24.722;2023-03-21T04:34:15;145098.28;;;8.72;100.00
6853;BME280;3465;42.144;24.722;2023-03-21T04:36:41;145093.31;;;8.70;100.00
6853;BME280;3465;42.144;24.722;2023-03-21T04:39:13;145082.03;;;8.65;100.00
6853;BME280;3465;42.144;24.722;2023-03-21T04:41:41;145029.56;;;8.44;100.00
6853;BME280;3465;42.144;24.722;2023-03-21T04:44:07;145119.53;;;8.81;100.00
6853;BME280;3465;42.144;24.722;2023-03-21T04:46:34;145117.06;;;8.80;100.00
6853;BME280;3465;42.144;24.722;2023-03-21T04:49:00;145082.03;;;8.65;100.00
6853;BME280;3465;42.144;24.722;2023-03-21T04:51:26;145117.06;;;8.80;100.00
6853;BME280;3465;42.144;24.722;2023-03-21T04:53:51;145132.06;;;8.86;100.00
6853;BME280;3465;42.144;24.722;2023-03-21T04:56:25;145149.59;;;8.93;100.00
6853;BME280;3465;42.144;24.722;2023-03-21T04:59:00;145172.06;;;9.02;100.00
6853;BME280;3465;42.144;24.722;2023-03-21T05:01:27;145208.34;;;9.16;100.00
6853;BME280;3465;42.144;24.722;2023-03-21T05:04:01;145255.88;;;9.35;100.00
6853;BME280;3465;42.144;24.722;2023-03-21T05:06:27;145282.13;;;9.46;100.00
6853;BME280;3465;42.144;24.722;2023-03-21T05:08:56;145310.91;;;9.57;100.00
6853;BME280;3465;42.144;24.722;2023-03-21T05:11:25;145372.22;;;9.82;99.59
6853;BME280;3465;42.144;24.722;2023-03-21T05:13:51;145426.06;;;10.03;98.27
6853;BME280;3465;42.144;24.722;2023-03-21T05:16:16;145591.34;;;10.70;95.53
6853;BME280;3465;42.144;24.722;2023-03-21T05:18:42;145740.44;;;11.29;91.59
6853;BME280;3465;42.144;24.722;2023-03-21T05:21:07;145829.47;;;11.65;88.57
6853;BME280;3465;42.144;24.722;2023-03-21T05:23:35;145902.19;;;11.94;86.56
6853;BME280;3465;42.144;24.722;2023-03-21T05:26:07;146022.59;;;12.42;84.70
6853;BME280;3465;42.144;24.722;2023-03-21T05:28:33;146092.81;;;12.70;83.48
6853;BME280;3465;42.144;24.722;2023-03-21T05:31:04;146037.63;;;12.48;81.41
6853;BME280;3465;42.144;24.722;2023-03-21T05:33:30;146160.56;;;12.97;80.75
6853;BME280;3465;42.144;24.722;2023-03-21T05:35:56;146140.50;;;12.89;81.51
6853;BME280;3465;42.144;24.722;2023-03-21T05:38:21;146031.38;;;12.46;81.55
6853;BME280;3465;42.144;24.722;2023-03-21T05:40:48;146052.66;;;12.54;82.67
6853;BME280;3465;42.144;24.722;2023-03-21T05:43:17;145957.34;;;12.16;85.60
6853;BME280;3465;42.144;24.722;2023-03-21T05:45:42;145952.34;;;12.14;86.15
6853;BME280;3465;42.144;24.722;2023-03-21T05:48:08;145957.34;;;12.16;86.61
6853;BME280;3465;42.144;24.722;2023-03-21T05:50:34;145884.63;;;11.87;88.95
6853;BME280;3465;42.144;24.722;2023-03-21T05:52:59;145845.78;;;11.72;90.95
6853;BME280;3465;42.144;24.722;2023-03-21T05:55:25;145862.09;;;11.78;92.25
6853;BME280;3465;42.144;24.722;2023-03-21T05:57:50;145872.09;;;11.82;92.19
6853;BME280;3465;42.144;24.722;2023-03-21T06:00:16;145858.31;;;11.77;93.52
6853;BME280;3465;42.144;24.722;2023-03-21T06:02:42;145847.06;;;11.72;94.06
6853;BME280;3465;42.144;24.722;2023-03-21T06:05:08;145874.63;;;11.83;94.56
6853;BME280;3465;42.144;24.722;2023-03-21T06:07:34;145839.47;;;11.69;96.81
6853;BME280;3465;42.144;24.722;2023-03-21T06:10:02;145852.03;;;11.74;97.12
6853;BME280;3465;42.144;24.722;2023-03-21T06:12:27;145829.47;;;11.65;98.60
6853;BME280;3465;42.144;24.722;2023-03-21T06:14:52;145810.66;;;11.57;99.07
6853;BME280;3465;42.144;24.722;2023-03-21T06:17:18;145820.66;;;11.62;98.74
6853;BME280;3465;42.144;24.722;2023-03-21T06:19:43;145873.34;;;11.83;97.77
6853;BME280;3465;42.144;24.722;2023-03-21T06:22:09;145857.06;;;11.76;96.14
6853;BME280;3465;42.144;24.722;2023-03-21T06:24:35;145872.09;;;11.82;96.68
6853;BME280;3465;42.144;24.722;2023-03-21T06:27:00;145818.16;;;11.61;97.81
6853;BME280;3465;42.144;24.722;2023-03-21T06:29:26;145837.00;;;11.68;98.69
6853;BME280;3465;42.144;24.722;2023-03-21T06:31:51;145927.28;;;12.04;97.55
6853;BME280;3465;42.144;24.722;2023-03-21T06:34:17;145987.47;;;12.28;94.65
6853;BME280;3465;42.144;24.722;2023-03-21T06:36:42;145969.91;;;12.21;95.58
6853;BME280;3465;42.144;24.722;2023-03-21T06:39:09;145951.09;;;12.14;96.04
6853;BME280;3465;42.144;24.722;2023-03-21T06:41:35;145897.16;;;11.92;97.71
6853;BME280;3465;42.144;24.722;2023-03-21T06:44:01;145917.22;;;12.00;98.33
6853;BME280;3465;42.144;24.722;2023-03-21T06:46:26;145855.78;;;11.76;99.40
6853;BME280;3465;42.144;24.722;2023-03-21T06:48:52;145827.00;;;11.64;100.00
6853;BME280;3465;42.144;24.722;2023-03-21T06:51:17;145825.72;;;11.64;100.00
6853;BME280;3465;42.144;24.722;2023-03-21T06:53:43;145756.75;;;11.36;100.00
6853;BME280;3465;42.144;24.722;2023-03-21T06:56:09;145781.81;;;11.46;100.00
6853;BME280;3465;42.144;24.722;2023-03-21T06:58:35;145830.75;;;11.66;100.00
6853;BME280;3465;42.144;24.722;2023-03-21T07:01:02;145874.63;;;11.83;100.00
6853;BME280;3465;42.144;24.722;2023-03-21T07:03:28;145847.06;;;11.72;100.00
6853;BME280;3465;42.144;24.722;2023-03-21T07:05:54;145884.63;;;11.87;100.00
6853;BME280;3465;42.144;24.722;2023-03-21T07:08:20;146003.75;;;12.35;98.16
6853;BME280;3465;42.144;24.722;2023-03-21T07:10:46;146175.72;;;13.04;93.92
6853;BME280;3465;42.144;24.722;2023-03-21T07:13:12;146212.09;;;13.18;91.71
6853;BME280;3465;42.144;24.722;2023-03-21T07:15:38;146360.25;;;13.77;89.25
6853;BME280;3465;42.144;24.722;2023-03-21T07:18:04;146396.66;;;13.92;87.27
6853;BME280;3465;42.144;24.722;2023-03-21T07:20:30;146509.78;;;14.37;86.42
6853;BME280;3465;42.144;24.722;2023-03-21T07:22:56;146645.50;;;14.91;82.14
6853;BME280;3465;42.144;24.722;2023-03-21T07:25:22;146766.22;;;15.39;79.02
6853;BME280;3465;42.144;24.722;2023-03-21T07:27:47;146829.09;;;15.64;77.57
6853;BME280;3465;42.144;24.722;2023-03-21T07:30:14;146830.38;;;15.65;76.76
6853;BME280;3465;42.144;24.722;2023-03-21T07:32:40;146803.94;;;15.54;76.62
6853;BME280;3465;42.144;24.722;2023-03-21T07:35:15;146766.22;;;15.39;77.57
6853;BME280;3465;42.144;24.722;2023-03-21T07:37:41;146778.81;;;15.44;77.82
6853;BME280;3465;42.144;24.722;2023-03-21T07:40:09;146944.81;;;16.11;75.02
6853;BME280;3465;42.144;24.722;2023-03-21T07:42:36;146915.94;;;15.99;74.11
6853;BME280;3465;42.144;24.722;2023-03-21T07:45:03;146826.59;;;15.63;74.55
6853;BME280;3465;42.144;24.722;2023-03-21T07:47:29;146762.41;;;15.38;76.65
6853;BME280;3465;42.144;24.722;2023-03-21T07:49:55;146767.47;;;15.40;76.53
6853;BME280;3465;42.144;24.722;2023-03-21T07:52:20;146791.41;;;15.49;76.24
6853;BME280;3465;42.144;24.722;2023-03-21T07:54:46;146815.28;;;15.59;75.09
6853;BME280;3465;42.144;24.722;2023-03-21T07:57:11;146966.22;;;16.19;73.37
6853;BME280;3465;42.144;24.722;2023-03-21T07:59:37;147133.72;;;16.86;69.53
6853;BME280;3465;42.144;24.722;2023-03-21T08:02:02;147231.91;;;17.25;66.83
6853;BME280;3465;42.144;24.722;2023-03-21T08:04:27;147172.72;;;17.01;65.79
6853;BME280;3465;42.144;24.722;2023-03-21T08:06:53;147148.81;;;16.92;67.22
6853;BME280;3465;42.144;24.722;2023-03-21T08:09:18;147108.53;;;16.76;66.11
6853;BME280;3465;42.144;24.722;2023-03-21T08:11:44;147031.72;;;16.45;66.73
6853;BME280;3465;42.144;24.722;2023-03-21T08:14:09;147033.00;;;16.46;66.41
6853;BME280;3465;42.144;24.722;2023-03-21T08:16:35;147020.38;;;16.41;66.10
6853;BME280;3465;42.144;24.722;2023-03-21T08:19:00;147051.88;;;16.53;64.77
6853;BME280;3465;42.144;24.722;2023-03-21T08:21:26;146995.19;;;16.31;66.55
6853;BME280;3465;42.144;24.722;2023-03-21T08:23:52;146986.34;;;16.27;66.35
6853;BME280;3465;42.144;24.722;2023-03-21T08:26:18;146951.13;;;16.13;66.83
6853;BME280;3465;42.144;24.722;2023-03-21T08:28:44;146946.09;;;16.11;68.09
6853;BME280;3465;42.144;24.722;2023-03-21T08:31:11;146962.47;;;16.18;67.89
6853;BME280;3465;42.144;24.722;2023-03-21T08:33:37;146914.66;;;15.99;67.79
6853;BME280;3465;42.144;24.722;2023-03-21T08:36:03;146883.22;;;15.86;68.32
6853;BME280;3465;42.144;24.722;2023-03-21T08:38:29;147060.69;;;16.57;66.14
6853;BME280;3465;42.144;24.722;2023-03-21T08:41:01;147205.47;;;17.14;64.28
6853;BME280;3465;42.144;24.722;2023-03-21T08:43:27;147330.22;;;17.64;62.24
6853;BME280;3465;42.144;24.722;2023-03-21T08:45:54;147342.81;;;17.69;60.71
6853;BME280;3465;42.144;24.722;2023-03-21T08:48:20;147307.50;;;17.55;61.47
6853;BME280;3465;42.144;24.722;2023-03-21T08:50:45;147250.78;;;17.33;62.43
6853;BME280;3465;42.144;24.722;2023-03-21T08:53:11;147179.00;;;17.04;63.25
6853;BME280;3465;42.144;24.722;2023-03-21T08:55:36;147129.88;;;16.84;63.97
6853;BME280;3465;42.144;24.722;2023-03-21T08:58:02;147061.91;;;16.57;65.74
6853;BME280;3465;42.144;24.722;2023-03-21T09:00:28;147035.50;;;16.47;66.54
6853;BME280;3465;42.144;24.722;2023-03-21T09:02:54;147022.88;;;16.42;67.90
6853;BME280;3465;42.144;24.722;2023-03-21T09:05:20;146993.91;;;16.30;68.31
6853;BME280;3465;42.144;24.722;2023-03-21T09:07:47;147026.63;;;16.43;68.28
6853;BME280;3465;42.144;24.722;2023-03-21T09:10:18;147064.47;;;16.58;68.28
6853;BME280;3465;42.144;24.722;2023-03-21T09:12:44;147064.47;;;16.58;68.06
6853;BME280;3465;42.144;24.722;2023-03-21T09:15:10;147113.56;;;16.78;66.72
6853;BME280;3465;42.144;24.722;2023-03-21T09:17:37;147243.22;;;17.30;65.33
6853;BME280;3465;42.144;24.722;2023-03-21T09:20:10;147399.53;;;17.92;63.07
6853;BME280;3465;42.144;24.722;2023-03-21T09:22:46;147545.75;;;18.50;60.58
6853;BME280;3465;42.144;24.722;2023-03-21T09:25:13;147516.78;;;18.38;59.55
6853;BME280;3465;42.144;24.722;2023-03-21T09:27:39;147531.91;;;18.44;59.65
6853;BME280;3465;42.144;24.722;2023-03-21T09:30:06;147472.56;;;18.21;59.27
6853;BME280;3465;42.144;24.722;2023-03-21T09:32:34;147471.34;;;18.20;60.31
6853;BME280;3465;42.144;24.722;2023-03-21T09:34:59;147506.63;;;18.34;60.06
6853;BME280;3465;42.144;24.722;2023-03-21T09:37:25;147491.50;;;18.28;59.75
6853;BME280;3465;42.144;24.722;2023-03-21T09:39:51;147521.78;;;18.40;60.41
6853;BME280;3465;42.144;24.722;2023-03-21T09:42:50;147511.69;;;18.36;60.15
6853;BME280;3465;42.144;24.722;2023-03-21T09:45:30;147457.47;;;18.15;60.40
6853;BME280;3465;42.144;24.722;2023-03-21T09:47:59;147481.41;;;18.24;60.61
6853;BME280;3465;42.144;24.722;2023-03-21T09:53:19;147399.53;;;17.92;59.17
6853;BME280;3465;42.144;24.722;2023-03-21T09:55:47;147495.28;;;18.30;59.52
6853;BME280;3465;42.144;24.722;2023-03-21T09:58:27;147596.19;;;18.70;58.57
6853;BME280;3465;42.144;24.722;2023-03-21T10:01:02;147630.22;;;18.84;57.17
6853;BME280;3465;42.144;24.722;2023-03-21T10:03:31;147597.47;;;18.71;57.58
6853;BME280;3465;42.144;24.722;2023-03-21T10:06:02;147675.63;;;19.02;56.89
6853;BME280;3465;42.144;24.722;2023-03-21T10:08:34;147694.53;;;19.09;57.66
6853;BME280;3465;42.144;24.722;2023-03-21T10:11:20;147739.97;;;19.27;56.51
6853;BME280;3465;42.144;24.722;2023-03-21T10:13:53;147770.31;;;19.39;56.66
6853;BME280;3465;42.144;24.722;2023-03-21T10:16:40;147877.53;;;19.82;54.37
6853;BME280;3465;42.144;24.722;2023-03-21T10:19:12;147861.13;;;19.75;54.65
6853;BME280;3465;42.144;24.722;2023-03-21T10:21:45;147965.94;;;20.17;53.65
6853;BME280;3465;42.144;24.722;2023-03-21T10:24:14;148036.66;;;20.45;53.04
6853;BME280;3465;42.144;24.722;2023-03-21T10:26:42;148026.53;;;20.41;52.12
6853;BME280;3465;42.144;24.722;2023-03-21T10:29:13;148082.13;;;20.63;52.05
6853;BME280;3465;42.144;24.722;2023-03-21T10:31:41;148136.41;;;20.85;51.05
6853;BME280;3465;42.144;24.722;2023-03-21T10:34:34;148096.00;;;20.69;50.94
6853;BME280;3465;42.144;24.722;2023-03-21T10:37:01;148117.47;;;20.77;51.03
6853;BME280;3465;42.144;24.722;2023-03-21T10:39:39;147971.00;;;20.19;51.89
6853;BME280;3465;42.144;24.722;2023-03-21T10:42:07;147895.22;;;19.89;52.92
6853;BME280;3465;42.144;24.722;2023-03-21T10:44:39;147853.56;;;19.72;53.83
6853;BME280;3465;42.144;24.722;2023-03-21T10:47:07;147880.09;;;19.83;54.16
6853;BME280;3465;42.144;24.722;2023-03-21T10:49:37;147876.25;;;19.81;54.50
6853;BME280;3465;42.144;24.722;2023-03-21T10:52:06;147847.28;;;19.70;55.06
6853;BME280;3465;42.144;24.722;2023-03-21T10:54:33;147949.47;;;20.11;54.13
6853;BME280;3465;42.144;24.722;2023-03-21T10:57:08;148049.28;;;20.50;52.71
6853;BME280;3465;42.144;24.722;2023-03-21T10:59:46;148074.50;;;20.60;51.71
6853;BME280;3465;42.144;24.722;2023-03-21T11:02:24;148070.72;;;20.59;51.35
6853;BME280;3465;42.144;24.722;2023-03-21T11:04:53;148059.38;;;20.54;51.89
6853;BME280;3465;42.144;24.722;2023-03-21T11:07:20;148013.91;;;20.36;51.42
6853;BME280;3465;42.144;24.722;2023-03-21T11:09:53;147925.50;;;20.01;53.06
6853;BME280;3465;42.144;24.722;2023-03-21T11:14:53;147784.16;;;19.45;53.28
6853;BME280;3465;42.144;24.722;2023-03-21T11:17:21;147727.34;;;19.22;54.78
6853;BME280;3465;42.144;24.722;2023-03-21T11:19:58;147776.59;;;19.42;54.64
6853;BME280;3465;42.144;24.722;2023-03-21T11:22:29;147808.13;;;19.54;52.92
6853;BME280;3465;42.144;24.722;2023-03-21T11:25:02;147880.09;;;19.83;52.91
6853;BME280;3465;42.144;24.722;2023-03-21T11:27:30;147824.53;;;19.61;50.67
6853;BME280;3465;42.144;24.722;2023-03-21T11:29:57;147837.16;;;19.66;51.06
6853;BME280;3465;42.144;24.722;2023-03-21T11:32:32;147654.16;;;18.93;53.05
6853;BME280;3465;42.144;24.722;2023-03-21T11:37:37;147671.84;;;19.00;53.67
6853;BME280;3465;42.144;24.722;2023-03-21T11:42:58;147723.56;;;19.21;53.00
6853;BME280;3465;42.144;24.722;2023-03-21T11:45:31;147775.31;;;19.41;52.72
6853;BME280;3465;42.144;24.722;2023-03-21T11:47:59;147762.75;;;19.36;52.53
6853;BME280;3465;42.144;24.722;2023-03-21T11:50:30;147789.22;;;19.47;52.08
6853;BME280;3465;42.144;24.722;2023-03-21T11:56:06;147686.97;;;19.06;53.02
6853;BME280;3465;42.144;24.722;2023-03-21T12:01:18;147610.03;;;18.76;54.49
6853;BME280;3465;42.144;24.722;2023-03-21T12:06:40;147481.41;;;18.24;56.55
6853;BME280;3465;42.144;24.722;2023-03-21T12:25:46;147763.97;;;19.37;55.17
6853;BME280;3465;42.144;24.722;2023-03-21T12:36:38;147686.97;;;19.06;57.11
6853;BME280;3465;42.144;24.722;2023-03-21T12:39:27;147700.88;;;19.12;57.31
6853;BME280;3465;42.144;24.722;2023-03-21T12:44:41;147655.44;;;18.94;58.72
6853;BME280;3465;42.144;24.722;2023-03-21T12:47:22;147631.50;;;18.84;58.92
6853;BME280;3465;42.144;24.722;2023-03-21T12:49:52;147598.69;;;18.71;59.43
6853;BME280;3465;42.144;24.722;2023-03-21T12:52:23;147486.47;;;18.26;61.25
6853;BME280;3465;42.144;24.722;2023-03-21T12:55:00;147468.78;;;18.19;61.94
6853;BME280;3465;42.144;24.722;2023-03-21T12:57:34;147448.63;;;18.11;63.17
6853;BME280;3465;42.144;24.722;2023-03-21T13:00:26;147454.97;;;18.14;63.70
6853;BME280;3465;42.144;24.722;2023-03-21T13:02:58;147496.56;;;18.30;62.79
6853;BME280;3465;42.144;24.722;2023-03-21T13:05:37;147514.19;;;18.37;63.07
6853;BME280;3465;42.144;24.722;2023-03-21T13:11:13;147487.72;;;18.27;62.55
6853;BME280;3465;42.144;24.722;2023-03-21T13:14:03;147480.19;;;18.24;63.35
6853;BME280;3465;42.144;24.722;2023-03-21T13:16:43;147443.63;;;18.09;64.12
6853;BME280;3465;42.144;24.722;2023-03-21T13:19:26;147410.84;;;17.96;64.96
6853;BME280;3465;42.144;24.722;2023-03-21T13:27:01;147428.47;;;18.03;65.60
6853;BME280;3465;42.144;24.722;2023-03-21T13:29:49;147389.41;;;17.88;66.59
6853;BME280;3465;42.144;24.722;2023-03-21T13:35:21;147332.72;;;17.65;67.56
6853;BME280;3465;42.144;24.722;2023-03-21T13:41:00;147414.63;;;17.98;66.89
6853;BME280;3465;42.144;24.722;2023-03-21T13:46:11;147403.28;;;17.93;68.24
6853;BME280;3465;42.144;24.722;2023-03-21T13:48:43;147425.97;;;18.02;68.26
6853;BME280;3465;42.144;24.722;2023-03-21T13:51:10;147431.00;;;18.04;68.55
6853;BME280;3465;42.144;24.722;2023-03-21T13:53:40;147439.84;;;18.08;68.67
6853;BME280;3465;42.144;24.722;2023-03-21T13:58:40;147432.25;;;18.05;69.01
6853;BME280;3465;42.144;24.722;2023-03-21T14:04:02;147431.00;;;18.04;69.15
6853;BME280;3465;42.144;24.722;2023-03-21T14:06:55;147408.31;;;17.95;69.08
6853;BME280;3465;42.144;24.722;2023-03-21T14:11:51;147366.75;;;17.79;69.62
6853;BME280;3465;42.144;24.722;2023-03-21T14:14:19;147365.47;;;17.78;69.54
6853;BME280;3465;42.144;24.722;2023-03-21T14:16:46;147315.09;;;17.58;69.43
6853;BME280;3465;42.144;24.722;2023-03-21T14:19:11;147303.72;;;17.54;70.14
6853;BME280;3465;42.144;24.722;2023-03-21T14:21:44;147332.72;;;17.65;70.04
6853;BME280;3465;42.144;24.722;2023-03-21T14:24:13;147337.75;;;17.67;69.09
6853;BME280;3465;42.144;24.722;2023-03-21T14:26:47;147315.09;;;17.58;69.40
6853;BME280;3465;42.144;24.722;2023-03-21T14:29:19;147293.69;;;17.50;70.08
6853;BME280;3465;42.144;24.722;2023-03-21T14:31:48;147283.56;;;17.46;70.63
6853;BME280;3465;42.144;24.722;2023-03-21T14:34:15;147305.00;;;17.54;70.96
6853;BME280;3465;42.144;24.722;2023-03-21T14:36:41;147307.50;;;17.55;71.10
6853;BME280;3465;42.144;24.722;2023-03-21T14:41:55;147323.88;;;17.62;69.99
6853;BME280;3465;42.144;24.722;2023-03-21T14:44:25;147315.09;;;17.58;70.47
6853;BME280;3465;42.144;24.722;2023-03-21T14:47:19;147320.09;;;17.60;70.23
6853;BME280;3465;42.144;24.722;2023-03-21T14:49:45;147302.50;;;17.53;70.33
6853;BME280;3465;42.144;24.722;2023-03-21T14:52:16;147312.56;;;17.57;70.23
6853;BME280;3465;42.144;24.722;2023-03-21T14:54:44;147263.38;;;17.38;70.55
6853;BME280;3465;42.144;24.722;2023-03-21T14:57:14;147289.91;;;17.48;70.89
6853;BME280;3465;42.144;24.722;2023-03-21T14:59:42;147294.94;;;17.50;70.89
6853;BME280;3465;42.144;24.722;2023-03-21T15:02:20;147292.41;;;17.49;70.50
6853;BME280;3465;42.144;24.722;2023-03-21T15:04:56;147279.75;;;17.44;70.76